createdAt,value
2022-09-22T00:00:10.591Z,75.68
2022-09-22T00:03:01.132Z,75.68
2022-09-22T00:05:31.521Z,75.69
2022-09-22T00:08:04.609Z,75.79
2022-09-22T00:10:36.641Z,75.77
2022-09-22T00:13:04.443Z,75.76
2022-09-22T00:15:36.294Z,75.86
2022-09-22T00:18:04.130Z,75.75
2022-09-22T00:20:31.812Z,75.77
2022-09-22T00:23:04.065Z,75.80
2022-09-22T00:25:36.028Z,75.72
2022-09-22T00:28:06.131Z,75.84
2022-09-22T00:30:45.612Z,75.88
2022-09-22T00:33:13.598Z,75.87
2022-09-22T00:35:44.076Z,75.95
2022-09-22T00:38:11.732Z,75.79
2022-09-22T00:40:42.123Z,75.77
2022-09-22T00:43:43.097Z,75.90
2022-09-22T00:46:32.242Z,75.88
2022-09-22T00:49:08.329Z,75.91
2022-09-22T00:51:43.954Z,75.94
2022-09-22T00:54:19.019Z,75.95
2022-09-22T00:57:06.643Z,75.97
2022-09-22T00:59:39.049Z,76.07
2022-09-22T01:02:10.944Z,76.01
2022-09-22T01:04:43.120Z,76.09
2022-09-22T01:07:15.410Z,76.00
2022-09-22T01:09:43.347Z,76.10
2022-09-22T01:12:15.181Z,76.10
2022-09-22T01:14:52.487Z,76.10
2022-09-22T01:17:38.665Z,76.09
2022-09-22T01:20:30.586Z,76.13
2022-09-22T01:23:35.282Z,76.13
2022-09-22T01:26:30.382Z,76.16
2022-09-22T01:29:38.022Z,76.16
2022-09-22T01:32:13.117Z,76.22
2022-09-22T01:35:13.322Z,76.13
2022-09-22T01:38:02.637Z,76.21
2022-09-22T01:40:53.234Z,76.26
2022-09-22T01:43:26.934Z,76.34
2022-09-22T01:46:01.257Z,76.30
2022-09-22T01:48:36.833Z,76.36
2022-09-22T01:51:22.355Z,76.31
2022-09-22T01:54:18.313Z,76.24
2022-09-22T01:56:56.749Z,76.29
2022-09-22T01:59:32.549Z,76.35
2022-09-22T02:02:37.966Z,76.40
2022-09-22T02:05:15.109Z,76.37
2022-09-22T02:07:50.113Z,76.30
2022-09-22T02:10:28.073Z,76.42
2022-09-22T02:12:56.031Z,76.34
2022-09-22T02:15:43.992Z,76.40
2022-09-22T02:18:25.228Z,76.47
2022-09-22T02:20:57.263Z,76.37
2022-09-22T02:23:25.812Z,76.38
2022-09-22T02:26:02.017Z,76.40
2022-09-22T02:28:37.895Z,76.54
2022-09-22T02:31:19.929Z,76.51
2022-09-22T02:33:56.559Z,76.48
2022-09-22T02:36:45.507Z,76.48
2022-09-22T02:39:30.431Z,76.47
2022-09-22T02:42:32.626Z,76.52
2022-09-22T02:45:09.547Z,76.70
2022-09-22T02:47:50.601Z,76.66
2022-09-22T02:50:27.148Z,76.72
2022-09-22T02:53:04.622Z,76.68
2022-09-22T02:55:32.876Z,76.63
2022-09-22T02:58:01.882Z,76.69
2022-09-22T03:00:37.078Z,76.79
2022-09-22T03:03:11.625Z,76.68
2022-09-22T03:05:43.840Z,76.75
2022-09-22T03:08:11.755Z,76.78
2022-09-22T03:10:45.028Z,76.77
2022-09-22T03:13:17.539Z,76.71
2022-09-22T03:15:49.849Z,76.73
2022-09-22T03:18:17.676Z,76.77
2022-09-22T03:20:47.202Z,76.81
2022-09-22T03:23:17.596Z,76.81
2022-09-22T03:25:45.284Z,76.85
2022-09-22T03:28:14.191Z,76.81
2022-09-22T03:30:48.490Z,76.76
2022-09-22T03:33:16.242Z,76.90
2022-09-22T03:35:48.598Z,76.88
2022-09-22T03:38:17.147Z,76.89
2022-09-22T03:40:54.256Z,76.89
2022-09-22T03:43:26.882Z,76.96
2022-09-22T03:46:05.310Z,76.96
2022-09-22T03:48:33.290Z,76.98
2022-09-22T03:51:01.029Z,77.02
2022-09-22T03:53:37.052Z,76.99
2022-09-22T03:56:13.115Z,77.02
2022-09-22T03:58:45.433Z,77.04
2022-09-22T04:01:13.813Z,77.00
2022-09-22T04:03:45.332Z,77.07
2022-09-22T04:06:17.512Z,77.06
2022-09-22T04:08:49.413Z,77.15
2022-09-22T04:11:17.137Z,77.12
2022-09-22T04:13:48.837Z,77.08
2022-09-22T04:16:21.605Z,77.15
2022-09-22T04:18:50.244Z,77.17
2022-09-22T04:21:18.184Z,77.06
2022-09-22T04:23:49.687Z,77.13
2022-09-22T04:26:17.754Z,77.26
2022-09-22T04:28:45.481Z,77.11
2022-09-22T04:31:13.242Z,77.17
2022-09-22T04:33:48.578Z,77.24
2022-09-22T04:36:16.491Z,77.04
2022-09-22T04:38:48.189Z,77.22
2022-09-22T04:41:15.878Z,77.17
2022-09-22T04:43:43.810Z,77.22
2022-09-22T04:46:14.033Z,77.21
2022-09-22T04:48:45.808Z,77.12
2022-09-22T04:51:17.809Z,77.23
2022-09-22T04:53:45.573Z,77.36
2022-09-22T04:56:15.199Z,77.29
2022-09-22T04:58:46.857Z,77.30
2022-09-22T05:01:14.671Z,77.34
2022-09-22T05:03:47.704Z,77.32
2022-09-22T05:06:15.650Z,77.20
2022-09-22T05:08:43.342Z,77.28
2022-09-22T05:11:14.957Z,77.29
2022-09-22T05:13:43.793Z,77.25
2022-09-22T05:16:14.278Z,77.24
2022-09-22T05:18:42.386Z,77.32
2022-09-22T05:21:14.439Z,77.41
2022-09-22T05:23:49.048Z,77.32
2022-09-22T05:26:17.095Z,77.38
2022-09-22T05:28:45.597Z,77.38
2022-09-22T05:31:14.396Z,77.43
2022-09-22T05:33:48.087Z,77.32
2022-09-22T05:36:19.745Z,77.41
2022-09-22T05:38:47.507Z,77.27
2022-09-22T05:41:15.489Z,77.25
2022-09-22T05:43:43.453Z,77.27
2022-09-22T05:46:11.751Z,77.22
2022-09-22T05:48:39.689Z,77.37
2022-09-22T05:51:07.535Z,77.42
2022-09-22T05:53:35.628Z,77.37
2022-09-22T05:56:03.422Z,77.35
2022-09-22T05:58:31.629Z,77.33
2022-09-22T06:00:59.415Z,77.36
2022-09-22T06:03:27.498Z,77.43
2022-09-22T06:05:55.289Z,77.39
2022-09-22T06:08:23.439Z,77.43
2022-09-22T06:10:51.534Z,77.38
2022-09-22T06:13:19.658Z,77.44
2022-09-22T06:15:48.886Z,77.44
2022-09-22T06:18:24.531Z,77.49
2022-09-22T06:20:56.293Z,77.43
2022-09-22T06:23:26.029Z,77.34
2022-09-22T06:25:59.674Z,77.46
2022-09-22T06:28:27.459Z,77.39
2022-09-22T06:30:58.953Z,77.37
2022-09-22T06:33:28.109Z,77.42
2022-09-22T06:35:58.251Z,77.44
2022-09-22T06:38:25.990Z,77.59
2022-09-22T06:40:59.202Z,77.55
2022-09-22T06:43:27.050Z,77.52
2022-09-22T06:45:59.678Z,77.46
2022-09-22T06:48:27.798Z,77.51
2022-09-22T06:50:55.873Z,77.54
2022-09-22T06:53:26.995Z,77.45
2022-09-22T06:55:56.105Z,77.44
2022-09-22T06:58:24.286Z,77.50
2022-09-22T07:00:53.953Z,77.46
2022-09-22T07:03:24.472Z,77.57
2022-09-22T07:05:54.404Z,77.59
2022-09-22T07:08:24.097Z,77.55
2022-09-22T07:11:04.296Z,77.60
2022-09-22T07:13:32.912Z,77.51
2022-09-22T07:16:02.689Z,77.52
2022-09-22T07:18:31.382Z,77.51
2022-09-22T07:21:08.223Z,77.59
2022-09-22T07:23:36.939Z,77.45
2022-09-22T07:26:07.083Z,77.37
2022-09-22T07:28:36.782Z,77.43
2022-09-22T07:31:07.584Z,77.55
2022-09-22T07:33:37.283Z,77.46
2022-09-22T07:36:12.167Z,77.43
2022-09-22T07:38:42.155Z,77.49
2022-09-22T07:41:15.653Z,77.57
2022-09-22T07:43:43.723Z,77.53
2022-09-22T07:46:13.440Z,77.46
2022-09-22T07:48:44.474Z,77.51
2022-09-22T07:51:21.813Z,77.47
2022-09-22T07:53:54.644Z,77.51
2022-09-22T07:56:29.268Z,77.42
2022-09-22T07:58:57.500Z,77.32
2022-09-22T08:01:31.531Z,77.41
2022-09-22T08:03:59.533Z,77.28
2022-09-22T08:06:28.888Z,77.47
2022-09-22T08:08:57.813Z,77.49
2022-09-22T08:11:29.469Z,77.54
2022-09-22T08:14:02.668Z,77.34
2022-09-22T08:16:33.986Z,77.45
2022-09-22T08:19:10.769Z,77.49
2022-09-22T08:21:48.317Z,77.29
2022-09-22T08:24:23.095Z,77.25
2022-09-22T08:26:55.168Z,77.22
2022-09-22T08:29:24.849Z,77.28
2022-09-22T08:31:54.528Z,77.25
2022-09-22T08:34:23.480Z,77.20
2022-09-22T08:36:52.470Z,77.31
2022-09-22T08:39:20.509Z,77.21
2022-09-22T08:41:48.312Z,77.25
2022-09-22T08:44:23.148Z,77.14
2022-09-22T08:46:53.631Z,77.22
2022-09-22T08:49:57.061Z,77.15
2022-09-22T08:52:39.068Z,77.19
2022-09-22T08:55:20.237Z,77.22
2022-09-22T08:58:16.775Z,77.22
2022-09-22T09:00:56.849Z,77.11
2022-09-22T09:03:52.239Z,77.17
2022-09-22T09:06:39.664Z,77.18
2022-09-22T09:09:21.152Z,77.14
2022-09-22T09:12:22.294Z,77.06
2022-09-22T09:15:05.520Z,77.13
2022-09-22T09:17:37.583Z,77.05
2022-09-22T09:20:20.095Z,77.14
2022-09-22T09:22:56.462Z,77.16
2022-09-22T09:25:42.794Z,77.02
2022-09-22T09:28:24.185Z,77.09
2022-09-22T09:31:05.043Z,77.08
2022-09-22T09:33:46.584Z,77.12
2022-09-22T09:36:20.817Z,77.16
2022-09-22T09:38:56.996Z,77.11
2022-09-22T09:41:32.831Z,77.13
2022-09-22T09:44:03.460Z,76.98
2022-09-22T09:46:50.869Z,77.00
2022-09-22T09:49:21.412Z,77.07
2022-09-22T09:51:53.274Z,76.96
2022-09-22T09:54:23.596Z,76.92
2022-09-22T09:57:28.096Z,77.11
2022-09-22T10:00:32.479Z,77.01
2022-09-22T10:03:22.151Z,76.88
2022-09-22T10:06:06.418Z,76.89
2022-09-22T10:08:51.132Z,76.97
2022-09-22T10:11:32.862Z,76.81
2022-09-22T10:14:01.327Z,76.95
2022-09-22T10:16:33.641Z,76.98
2022-09-22T10:19:21.318Z,76.83
2022-09-22T10:21:49.758Z,76.84
2022-09-22T10:24:31.692Z,76.85
2022-09-22T10:27:02.564Z,76.77
2022-09-22T10:29:33.696Z,76.75
2022-09-22T10:32:06.541Z,76.84
2022-09-22T10:34:37.971Z,76.76
2022-09-22T10:37:10.837Z,76.74
2022-09-22T10:39:51.326Z,76.73
2022-09-22T10:42:23.457Z,76.71
2022-09-22T10:44:53.248Z,76.69
2022-09-22T10:47:26.702Z,76.59
2022-09-22T10:50:07.420Z,76.53
2022-09-22T10:52:55.977Z,76.57
2022-09-22T10:55:30.986Z,76.56
2022-09-22T10:58:04.868Z,76.66
2022-09-22T11:00:41.213Z,76.53
2022-09-22T11:03:27.533Z,76.54
2022-09-22T11:06:33.288Z,76.29
2022-09-22T11:09:36.462Z,76.43
2022-09-22T11:12:29.648Z,76.38
2022-09-22T11:15:14.541Z,76.27
2022-09-22T11:17:53.435Z,76.41
2022-09-22T11:20:33.994Z,76.37
2022-09-22T11:23:17.255Z,76.35
2022-09-22T11:26:12.683Z,76.25
2022-09-22T11:29:07.619Z,76.26
2022-09-22T11:32:06.087Z,76.30
2022-09-22T11:34:49.273Z,76.27
2022-09-22T11:37:32.675Z,76.17
2022-09-22T11:40:03.749Z,76.14
2022-09-22T11:42:44.481Z,76.07
2022-09-22T11:45:34.465Z,76.05
2022-09-22T11:48:40.733Z,76.04
2022-09-22T11:51:34.982Z,76.04
2022-09-22T11:54:47.223Z,76.08
2022-09-22T11:57:24.105Z,75.98
2022-09-22T11:59:58.487Z,75.91
2022-09-22T12:02:41.634Z,76.02
2022-09-22T12:05:36.443Z,75.97
2022-09-22T12:08:21.431Z,75.90
2022-09-22T12:10:51.558Z,76.05
2022-09-22T12:13:31.542Z,75.93
2022-09-22T12:16:19.641Z,75.77
2022-09-22T12:18:53.832Z,75.80
2022-09-22T12:21:46.251Z,75.65
2022-09-22T12:24:14.692Z,75.71
2022-09-22T12:26:46.557Z,75.44
2022-09-22T12:29:14.793Z,75.56
2022-09-22T12:31:49.534Z,75.59
2022-09-22T12:34:21.275Z,75.51
2022-09-22T12:36:53.032Z,75.47
2022-09-22T12:39:22.778Z,75.49
2022-09-22T12:41:58.033Z,75.47
2022-09-22T12:44:27.792Z,75.57
2022-09-22T12:47:02.076Z,75.61
2022-09-22T12:49:30.999Z,75.60
2022-09-22T12:51:59.720Z,75.52
2022-09-22T12:54:37.836Z,75.54
2022-09-22T12:57:23.269Z,75.30
2022-09-22T13:00:11.510Z,75.23
2022-09-22T13:02:46.442Z,75.08
2022-09-22T13:05:26.290Z,75.05
2022-09-22T13:07:55.913Z,75.07
2022-09-22T13:10:24.274Z,74.99
2022-09-22T13:13:01.877Z,75.05
2022-09-22T13:15:34.548Z,74.91
2022-09-22T13:18:02.767Z,74.92
2022-09-22T13:20:34.377Z,74.92
2022-09-22T13:23:13.301Z,74.78
2022-09-22T13:25:44.954Z,74.94
2022-09-22T13:28:22.246Z,74.98
2022-09-22T13:31:09.528Z,74.95
2022-09-22T13:33:37.740Z,74.92
2022-09-22T13:36:16.458Z,74.80
2022-09-22T13:38:51.390Z,74.75
2022-09-22T13:41:26.526Z,74.87
2022-09-22T13:44:08.220Z,74.89
2022-09-22T13:46:46.538Z,74.75
2022-09-22T13:49:31.454Z,74.72
2022-09-22T13:52:04.945Z,74.94
2022-09-22T13:54:35.374Z,74.78
2022-09-22T13:57:07.074Z,74.84
2022-09-22T13:59:41.596Z,74.96
2022-09-22T14:02:13.468Z,74.79
2022-09-22T14:04:53.564Z,74.68
2022-09-22T14:07:23.634Z,74.78
2022-09-22T14:09:52.679Z,74.72
2022-09-22T14:12:21.410Z,74.69
2022-09-22T14:14:49.607Z,74.70
2022-09-22T14:17:24.655Z,74.66
2022-09-22T14:20:04.540Z,74.75
2022-09-22T14:22:40.441Z,74.66
2022-09-22T14:25:22.423Z,74.74
2022-09-22T14:27:55.643Z,74.57
2022-09-22T14:30:29.293Z,74.70
2022-09-22T14:33:02.356Z,74.70
2022-09-22T14:35:36.551Z,74.77
2022-09-22T14:38:15.869Z,74.72
2022-09-22T14:40:54.229Z,74.58
2022-09-22T14:43:42.582Z,74.53
2022-09-22T14:46:34.059Z,74.51
2022-09-22T14:49:36.243Z,74.45
2022-09-22T14:52:07.773Z,74.33
2022-09-22T14:54:36.432Z,74.41
2022-09-22T14:57:08.201Z,74.38
2022-09-22T14:59:57.454Z,74.35
2022-09-22T15:02:36.569Z,74.47
2022-09-22T15:05:05.526Z,74.27
2022-09-22T15:07:36.519Z,74.31
2022-09-22T15:10:20.465Z,74.19
2022-09-22T15:12:49.782Z,74.19
2022-09-22T15:15:19.844Z,74.11
2022-09-22T15:18:08.725Z,74.23
2022-09-22T15:20:47.875Z,74.00
2022-09-22T15:23:28.675Z,74.12
2022-09-22T15:25:57.183Z,74.16
2022-09-22T15:28:27.184Z,74.07
2022-09-22T15:30:55.174Z,74.12
2022-09-22T15:33:25.167Z,74.25
2022-09-22T15:35:57.125Z,74.20
2022-09-22T15:38:29.864Z,74.15
2022-09-22T15:41:01.512Z,74.04
2022-09-22T15:43:31.694Z,74.04
2022-09-22T15:46:03.259Z,73.99
2022-09-22T15:48:38.561Z,73.97
2022-09-22T15:51:16.570Z,73.79
2022-09-22T15:53:44.606Z,73.92
2022-09-22T15:56:20.940Z,73.92
2022-09-22T15:58:52.981Z,73.83
2022-09-22T16:01:20.890Z,73.87
2022-09-22T16:03:53.195Z,73.79
2022-09-22T16:06:23.510Z,73.76
2022-09-22T16:08:55.268Z,73.81
2022-09-22T16:11:31.106Z,73.79
2022-09-22T16:14:03.670Z,73.82
2022-09-22T16:16:36.940Z,73.89
2022-09-22T16:19:10.555Z,73.72
2022-09-22T16:21:49.530Z,73.76
2022-09-22T16:24:17.544Z,73.73
2022-09-22T16:26:47.108Z,73.72
2022-09-22T16:29:17.927Z,73.72
2022-09-22T16:31:47.031Z,73.74
2022-09-22T16:34:17.654Z,73.69
2022-09-22T16:36:47.681Z,73.65
2022-09-22T16:39:15.654Z,73.64
2022-09-22T16:41:47.027Z,73.57
2022-09-22T16:44:18.231Z,73.57
2022-09-22T16:46:46.233Z,73.51
2022-09-22T16:49:17.540Z,73.57
2022-09-22T16:51:49.757Z,73.56
2022-09-22T16:54:20.356Z,73.56
2022-09-22T16:56:51.006Z,73.65
2022-09-22T16:59:22.538Z,73.57
2022-09-22T17:01:52.349Z,73.61
2022-09-22T17:04:21.517Z,73.58
2022-09-22T17:06:54.700Z,73.52
2022-09-22T17:09:22.856Z,73.59
2022-09-22T17:11:54.965Z,73.46
2022-09-22T17:14:24.444Z,73.49
2022-09-22T17:16:56.839Z,73.50
2022-09-22T17:19:27.996Z,73.50
2022-09-22T17:21:59.229Z,73.53
2022-09-22T17:24:27.561Z,73.58
2022-09-22T17:26:59.899Z,73.56
2022-09-22T17:29:32.877Z,73.59
2022-09-22T17:32:05.647Z,73.57
2022-09-22T17:34:37.016Z,73.63
2022-09-22T17:37:07.935Z,73.55
2022-09-22T17:39:37.187Z,73.53
2022-09-22T17:42:06.698Z,73.67
2022-09-22T17:44:36.234Z,73.60
2022-09-22T17:47:25.811Z,73.48
2022-09-22T17:50:14.002Z,73.56
2022-09-22T17:53:01.581Z,73.69
2022-09-22T17:55:31.006Z,73.53
2022-09-22T17:58:01.613Z,73.67
2022-09-22T18:00:32.055Z,73.64
2022-09-22T18:03:00.247Z,73.57
2022-09-22T18:05:33.734Z,73.51
2022-09-22T18:08:04.745Z,73.66
2022-09-22T18:10:35.377Z,73.49
2022-09-22T18:13:06.137Z,73.51
2022-09-22T18:15:38.396Z,73.60
2022-09-22T18:18:07.900Z,73.51
2022-09-22T18:20:35.868Z,73.56
2022-09-22T18:23:07.338Z,73.58
2022-09-22T18:25:36.926Z,73.57
2022-09-22T18:28:08.379Z,73.57
2022-09-22T18:30:41.690Z,73.67
2022-09-22T18:33:11.150Z,73.57
2022-09-22T18:35:41.283Z,73.55
2022-09-22T18:38:12.360Z,73.67
2022-09-22T18:40:41.965Z,73.70
2022-09-22T18:43:10.895Z,73.73
2022-09-22T18:45:38.849Z,73.79
2022-09-22T18:48:09.836Z,73.66
2022-09-22T18:50:39.523Z,73.70
2022-09-22T18:53:07.468Z,73.78
2022-09-22T18:55:37.100Z,73.68
2022-09-22T18:58:05.046Z,73.79
2022-09-22T19:00:34.485Z,73.77
2022-09-22T19:03:03.668Z,73.71
2022-09-22T19:05:33.116Z,73.82
2022-09-22T19:08:03.497Z,73.74
2022-09-22T19:10:31.949Z,73.75
2022-09-22T19:13:00.731Z,73.76
2022-09-22T19:15:30.121Z,73.83
2022-09-22T19:17:58.250Z,73.74
2022-09-22T19:20:28.461Z,73.71
2022-09-22T19:22:57.020Z,73.89
2022-09-22T19:25:27.254Z,73.84
2022-09-22T19:27:55.372Z,73.74
2022-09-22T19:30:26.558Z,73.90
2022-09-22T19:32:56.343Z,73.90
2022-09-22T19:35:28.471Z,73.88
2022-09-22T19:37:57.989Z,73.95
2022-09-22T19:40:27.433Z,73.83
2022-09-22T19:42:56.265Z,73.83
2022-09-22T19:45:26.686Z,73.88
2022-09-22T19:47:58.615Z,74.06
2022-09-22T19:50:27.632Z,73.95
2022-09-22T19:52:56.744Z,73.95
2022-09-22T19:55:25.802Z,73.89
2022-09-22T19:57:56.740Z,73.91
2022-09-22T20:00:28.654Z,73.84
2022-09-22T20:03:01.379Z,73.88
2022-09-22T20:05:37.236Z,74.00
2022-09-22T20:08:08.365Z,74.10
2022-09-22T20:10:37.663Z,74.02
2022-09-22T20:13:25.621Z,74.05
2022-09-22T20:15:53.661Z,74.20
2022-09-22T20:18:22.042Z,74.11
2022-09-22T20:20:53.581Z,74.20
2022-09-22T20:23:22.016Z,74.22
2022-09-22T20:25:52.226Z,74.10
2022-09-22T20:28:22.407Z,74.11
2022-09-22T20:30:50.750Z,74.17
2022-09-22T20:33:24.187Z,74.16
2022-09-22T20:35:57.204Z,74.15
2022-09-22T20:38:25.570Z,74.12
2022-09-22T20:40:53.865Z,74.06
2022-09-22T20:43:22.602Z,74.07
2022-09-22T20:45:50.865Z,74.15
2022-09-22T20:48:19.638Z,74.17
2022-09-22T20:51:02.820Z,74.09
2022-09-22T20:53:37.471Z,74.15
2022-09-22T20:56:11.808Z,74.14
2022-09-22T20:58:46.827Z,74.24
2022-09-22T21:01:20.113Z,74.19
2022-09-22T21:03:50.876Z,74.16
2022-09-22T21:06:27.349Z,74.19
2022-09-22T21:09:13.406Z,74.26
2022-09-22T21:11:48.620Z,74.25
2022-09-22T21:14:16.415Z,74.28
2022-09-22T21:16:52.166Z,74.32
2022-09-22T21:19:22.097Z,74.28
2022-09-22T21:21:50.734Z,74.34
2022-09-22T21:24:18.376Z,74.44
2022-09-22T21:26:49.876Z,74.34
2022-09-22T21:29:17.670Z,74.29
2022-09-22T21:31:51.118Z,74.35
2022-09-22T21:34:18.936Z,74.32
2022-09-22T21:36:46.968Z,74.33
2022-09-22T21:39:19.551Z,74.33
2022-09-22T21:41:47.278Z,74.38
2022-09-22T21:44:15.178Z,74.29
2022-09-22T21:46:45.652Z,74.30
2022-09-22T21:49:16.043Z,74.41
2022-09-22T21:51:47.363Z,74.46
2022-09-22T21:54:23.170Z,74.34
2022-09-22T21:56:54.118Z,74.40
2022-09-22T21:59:21.851Z,74.33
2022-09-22T22:01:49.669Z,74.34
2022-09-22T22:04:20.793Z,74.41
2022-09-22T22:06:51.798Z,74.52
2022-09-22T22:09:24.173Z,74.50
2022-09-22T22:11:59.836Z,74.48
2022-09-22T22:14:35.706Z,74.42
2022-09-22T22:17:07.395Z,74.46
2022-09-22T22:19:36.740Z,74.42
2022-09-22T22:22:06.072Z,74.48
2022-09-22T22:24:43.445Z,74.44
2022-09-22T22:27:14.607Z,74.55
2022-09-22T22:29:43.944Z,74.52
2022-09-22T22:32:14.805Z,74.54
2022-09-22T22:34:42.490Z,74.52
2022-09-22T22:37:11.508Z,74.55
2022-09-22T22:39:41.145Z,74.59
2022-09-22T22:42:09.054Z,74.53
2022-09-22T22:44:37.007Z,74.51
2022-09-22T22:47:11.601Z,74.54
2022-09-22T22:49:40.101Z,74.48
2022-09-22T22:52:08.009Z,74.56
2022-09-22T22:54:37.344Z,74.43
2022-09-22T22:57:09.066Z,74.53
2022-09-22T22:59:36.936Z,74.57
2022-09-22T23:02:04.904Z,74.45
2022-09-22T23:04:36.289Z,74.55
2022-09-22T23:07:04.087Z,74.46
2022-09-22T23:09:33.076Z,74.45
2022-09-22T23:12:03.166Z,74.47
2022-09-22T23:14:31.141Z,74.51
2022-09-22T23:16:58.905Z,74.57
2022-09-22T23:19:26.934Z,74.55
2022-09-22T23:21:57.496Z,74.64
2022-09-22T23:24:25.298Z,74.52
2022-09-22T23:26:57.638Z,74.50
2022-09-22T23:29:25.546Z,74.42
2022-09-22T23:31:55.149Z,74.52
2022-09-22T23:34:27.781Z,74.57
2022-09-22T23:36:55.548Z,74.62
2022-09-22T23:39:23.467Z,74.60
2022-09-22T23:41:52.842Z,74.63
2022-09-22T23:44:23.681Z,74.74
2022-09-22T23:46:54.841Z,74.72
2022-09-22T23:49:22.723Z,74.71
2022-09-22T23:51:52.305Z,74.64
2022-09-22T23:54:20.010Z,74.79
2022-09-22T23:56:51.103Z,74.75
2022-09-22T23:59:18.761Z,74.77
